Terminal Aerodrome Forecast
Issued by NWS Quad Cities IA IL

Home | Current Version | Previous Version | Text Only | Print | Product List | Glossary On
Versions: 1 2 3 4 5 6 7 8 9 10 11 12 13 14 15 16
592
FTUS43 KDVN 252342
TAFDBQ
TAF
KDBQ 252342Z 2600/2624 12008KT P6SM BKN080
     FM260700 15011KT P6SM VCSH OVC040
     FM261200 23007KT 5SM -SHRA BR OVC020
     FM262000 29013KT P6SM OVC010=

USA.gov is the U.S. government's official web portal to all federal, state and local government web resources and services.